Time;durP1;ratioP1;P1;durP2;ratioP2;P2;SDS_P1;SDS_P2;PMS_P1;PMS_P2;Temp;Humidity;BMP_temperature;BMP_pressure;BME280_temperature;BME280_humidity;BME280_pressure;Samples;Min_cycle;Max_cycle;Signal;HPM_P1;HPM_P2
2021/01/08 00:02:30;;;;;;;4.30;4.00;;;;;;;;;;5011262;28;20229;-71
2021/01/08 00:05:14;;;;;;;4.70;4.20;;;;;;;;;;5011683;28;20277;-71
2021/01/08 00:07:59;;;;;;;4.03;3.73;;;;;;;;;;5010953;28;20257;-71
2021/01/08 00:10:43;;;;;;;4.20;3.90;;;;;;;;;;5011260;28;20210;-71
2021/01/08 00:13:28;;;;;;;4.30;3.90;;;;;;;;;;5011317;28;20309;-71
2021/01/08 00:16:12;;;;;;;4.23;3.80;;;;;;;;;;5010941;28;20273;-71
2021/01/08 00:18:58;;;;;;;4.23;3.40;;;;;;;;;;5011413;28;20241;-71
2021/01/08 00:21:43;;;;;;;4.00;3.70;;;;;;;;;;5011409;28;20229;-71
2021/01/08 00:24:28;;;;;;;4.50;4.13;;;;;;;;;;5011399;28;20277;-71
2021/01/08 00:27:12;;;;;;;4.63;4.23;;;;;;;;;;5010758;28;20217;-71
2021/01/08 00:29:57;;;;;;;4.47;4.17;;;;;;;;;;5011185;28;20207;-70
2021/01/08 00:32:41;;;;;;;5.40;4.50;;;;;;;;;;5011177;28;20420;-71
2021/01/08 00:35:26;;;;;;;6.33;4.90;;;;;;;;;;5011032;28;20207;-71
2021/01/08 00:38:11;;;;;;;5.10;4.60;;;;;;;;;;5010605;28;20560;-71
2021/01/08 00:40:55;;;;;;;5.10;4.60;;;;;;;;;;5011137;28;20288;-71
2021/01/08 00:43:40;;;;;;;5.57;4.67;;;;;;;;;;5011117;28;20230;-71
2021/01/08 00:46:34;;;;;;;4.83;4.13;;;;;;;;;;5010657;28;20253;-71
2021/01/08 00:49:19;;;;;;;4.43;4.03;;;;;;;;;;5030217;28;20214;-71
2021/01/08 00:52:04;;;;;;;6.03;4.50;;;;;;;;;;5030633;28;20225;-71
2021/01/08 00:54:50;;;;;;;4.53;4.10;;;;;;;;;;5030744;28;20613;-71
2021/01/08 00:57:34;;;;;;;5.07;4.57;;;;;;;;;;5029152;28;20731;-71
2021/01/08 01:00:19;;;;;;;4.13;3.83;;;;;;;;;;5030774;28;20217;-71
2021/01/08 01:03:03;;;;;;;4.37;3.97;;;;;;;;;;5033434;28;20233;-71
2021/01/08 01:05:48;;;;;;;5.67;4.80;;;;;;;;;;5038395;28;21026;-71
2021/01/08 01:08:33;;;;;;;4.90;4.00;;;;;;;;;;5039067;28;20277;-71
2021/01/08 01:11:18;;;;;;;5.13;4.40;;;;;;;;;;5038157;28;20225;-71
2021/01/08 01:14:02;;;;;;;5.33;4.50;;;;;;;;;;5033407;28;20213;-71
2021/01/08 01:16:47;;;;;;;4.37;4.07;;;;;;;;;;5034072;28;20198;-71
2021/01/08 01:19:32;;;;;;;4.70;4.20;;;;;;;;;;5014640;28;20289;-71
2021/01/08 01:22:16;;;;;;;5.13;4.40;;;;;;;;;;5013686;28;20309;-71
2021/01/08 01:25:01;;;;;;;3.83;3.53;;;;;;;;;;5014118;28;20681;-71
2021/01/08 01:27:46;;;;;;;6.80;4.90;;;;;;;;;;5013688;28;20206;-70
2021/01/08 01:30:31;;;;;;;4.20;3.90;;;;;;;;;;5014197;28;20253;-71
2021/01/08 01:33:15;;;;;;;4.70;4.30;;;;;;;;;;5026893;28;20261;-71
2021/01/08 01:36:04;;;;;;;5.23;4.33;;;;;;;;;;5033128;28;20256;-71
2021/01/08 01:38:48;;;;;;;6.20;5.70;;;;;;;;;;5032497;28;20457;-70
2021/01/08 01:41:33;;;;;;;5.70;5.20;;;;;;;;;;5032956;28;20222;-71
2021/01/08 01:44:18;;;;;;;5.10;4.60;;;;;;;;;;5033315;28;20710;-71
2021/01/08 01:47:02;;;;;;;6.80;4.80;;;;;;;;;;5032064;28;20573;-71
2021/01/08 01:49:47;;;;;;;6.10;4.47;;;;;;;;;;5033505;28;20294;-71
2021/01/08 01:52:31;;;;;;;5.87;4.67;;;;;;;;;;5033135;28;20226;-71
2021/01/08 01:55:16;;;;;;;5.07;4.63;;;;;;;;;;5033394;28;20221;-71
2021/01/08 01:58:03;;;;;;;6.53;4.50;;;;;;;;;;5032782;28;20206;-71
2021/01/08 02:00:48;;;;;;;4.97;4.00;;;;;;;;;;5033264;28;21936;-71
2021/01/08 02:03:34;;;;;;;5.97;4.30;;;;;;;;;;5031445;28;20234;-71
2021/01/08 02:06:20;;;;;;;4.30;4.00;;;;;;;;;;5032677;28;20229;-71
2021/01/08 02:09:06;;;;;;;4.20;3.80;;;;;;;;;;5033463;28;20260;-71
2021/01/08 02:11:54;;;;;;;4.17;3.83;;;;;;;;;;5033034;28;20246;-71
2021/01/08 02:14:41;;;;;;;3.90;3.57;;;;;;;;;;5033003;28;20210;-71
2021/01/08 02:17:26;;;;;;;3.90;3.47;;;;;;;;;;5031681;28;20683;-71
2021/01/08 02:20:11;;;;;;;4.03;3.73;;;;;;;;;;5031932;28;20206;-71
2021/01/08 02:22:59;;;;;;;3.93;3.40;;;;;;;;;;5031897;28;20233;-71
2021/01/08 02:25:45;;;;;;;4.17;3.77;;;;;;;;;;5033014;28;20213;-71
2021/01/08 02:28:29;;;;;;;4.17;3.80;;;;;;;;;;5032839;28;20704;-71
2021/01/08 02:31:14;;;;;;;4.70;4.23;;;;;;;;;;5032382;28;20249;-71
2021/01/08 02:33:59;;;;;;;3.97;3.67;;;;;;;;;;5032623;28;20233;-71
2021/01/08 02:36:45;;;;;;;4.00;3.60;;;;;;;;;;5031009;28;20206;-71
2021/01/08 02:39:30;;;;;;;4.63;4.13;;;;;;;;;;5032362;28;20272;-71
2021/01/08 02:42:16;;;;;;;4.80;4.40;;;;;;;;;;5032305;28;20239;-71
2021/01/08 02:45:01;;;;;;;4.53;4.00;;;;;;;;;;5032461;28;20202;-71
2021/01/08 02:47:45;;;;;;;4.17;3.73;;;;;;;;;;5031240;28;20229;-71
2021/01/08 02:50:29;;;;;;;4.87;4.37;;;;;;;;;;5031167;28;20889;-71
2021/01/08 02:53:16;;;;;;;5.10;4.60;;;;;;;;;;5032396;28;20680;-71
2021/01/08 02:56:02;;;;;;;4.70;4.30;;;;;;;;;;5031762;28;20290;-70
2021/01/08 02:58:48;;;;;;;4.30;3.90;;;;;;;;;;5032198;28;20256;-71
2021/01/08 03:01:32;;;;;;;4.03;3.70;;;;;;;;;;5031119;28;20315;-71
2021/01/08 03:04:17;;;;;;;3.60;3.30;;;;;;;;;;5030132;28;20276;-71
2021/01/08 03:07:02;;;;;;;7.23;3.93;;;;;;;;;;5031629;28;20221;-71
2021/01/08 03:09:46;;;;;;;3.87;3.57;;;;;;;;;;5032006;28;20261;-71
2021/01/08 03:12:32;;;;;;;4.30;3.93;;;;;;;;;;5031788;28;20588;-71
2021/01/08 03:15:17;;;;;;;5.72;5.22;;;;;;;;;;5031150;28;20405;-71
2021/01/08 03:18:01;;;;;;;4.40;4.00;;;;;;;;;;5031434;28;20209;-71
2021/01/08 03:20:46;;;;;;;4.43;4.03;;;;;;;;;;5030626;28;20237;-71
2021/01/08 03:23:30;;;;;;;3.87;3.57;;;;;;;;;;5031769;28;20306;-71
2021/01/08 03:26:15;;;;;;;4.87;3.60;;;;;;;;;;5030746;28;20225;-71
2021/01/08 03:28:59;;;;;;;4.23;3.80;;;;;;;;;;5031670;28;20202;-71
2021/01/08 03:31:45;;;;;;;3.47;3.17;;;;;;;;;;5030924;28;20719;-71
2021/01/08 03:34:29;;;;;;;3.37;3.10;;;;;;;;;;5030196;28;20681;-70
2021/01/08 03:37:14;;;;;;;5.23;3.43;;;;;;;;;;5031127;28;20209;-71
2021/01/08 03:39:59;;;;;;;4.03;3.67;;;;;;;;;;5031549;28;20202;-71
2021/01/08 03:42:46;;;;;;;5.00;3.80;;;;;;;;;;5031138;28;20238;-71
2021/01/08 03:45:30;;;;;;;3.93;3.60;;;;;;;;;;5030514;28;20241;-71
2021/01/08 03:48:16;;;;;;;4.17;3.47;;;;;;;;;;5030839;28;20818;-71
2021/01/08 03:51:00;;;;;;;3.63;3.37;;;;;;;;;;5030179;28;20233;-71
2021/01/08 03:53:45;;;;;;;3.40;3.10;;;;;;;;;;5031333;28;20253;-71
2021/01/08 03:56:29;;;;;;;5.03;3.20;;;;;;;;;;5030786;28;20214;-71
2021/01/08 03:59:14;;;;;;;3.80;3.50;;;;;;;;;;5031085;28;20201;-71
2021/01/08 04:01:58;;;;;;;4.00;3.70;;;;;;;;;;5031114;28;20230;-71
2021/01/08 04:04:44;;;;;;;3.10;2.87;;;;;;;;;;5030100;28;20214;-70
2021/01/08 04:07:28;;;;;;;3.33;3.03;;;;;;;;;;5030664;28;20206;-71
2021/01/08 04:10:13;;;;;;;3.83;3.30;;;;;;;;;;5031114;28;20264;-71
2021/01/08 04:12:57;;;;;;;3.30;3.10;;;;;;;;;;5030985;28;20202;-71
2021/01/08 04:15:42;;;;;;;3.20;3.00;;;;;;;;;;5030376;28;20202;-71
2021/01/08 04:18:26;;;;;;;3.10;2.90;;;;;;;;;;5029806;28;20691;-71
2021/01/08 04:21:11;;;;;;;3.20;3.00;;;;;;;;;;5030680;28;20229;-71
2021/01/08 04:23:56;;;;;;;3.70;3.40;;;;;;;;;;5030744;28;20249;-71
2021/01/08 04:26:40;;;;;;;3.00;2.80;;;;;;;;;;5030585;28;20248;-71
2021/01/08 04:29:25;;;;;;;3.33;3.13;;;;;;;;;;5031081;28;20226;-71
2021/01/08 04:32:10;;;;;;;3.20;3.00;;;;;;;;;;5031226;28;20222;-71
2021/01/08 04:34:55;;;;;;;3.43;3.10;;;;;;;;;;5030115;28;20237;-71
2021/01/08 04:37:40;;;;;;;4.23;3.30;;;;;;;;;;5030237;28;20198;-71
2021/01/08 04:40:24;;;;;;;3.57;3.37;;;;;;;;;;5030643;28;20275;-71
2021/01/08 04:43:09;;;;;;;4.00;3.60;;;;;;;;;;5030460;28;20631;-71
2021/01/08 04:45:55;;;;;;;3.87;3.57;;;;;;;;;;5032500;28;20210;-71
2021/01/08 04:48:41;;;;;;;4.20;3.80;;;;;;;;;;5033770;28;20226;-70
2021/01/08 04:51:26;;;;;;;4.17;3.87;;;;;;;;;;5034382;28;20245;-71
2021/01/08 04:54:12;;;;;;;6.15;5.65;;;;;;;;;;5033392;28;20948;-71
2021/01/08 04:56:57;;;;;;;5.03;4.53;;;;;;;;;;5034095;28;20201;-71
2021/01/08 04:59:42;;;;;;;5.43;4.10;;;;;;;;;;5034385;28;20202;-71
2021/01/08 05:02:26;;;;;;;5.00;4.40;;;;;;;;;;5022995;28;20262;-71
2021/01/08 05:05:12;;;;;;;4.30;3.90;;;;;;;;;;5032679;28;20580;-71
2021/01/08 05:07:57;;;;;;;4.47;4.13;;;;;;;;;;5033153;28;20581;-71
2021/01/08 05:10:42;;;;;;;4.50;4.10;;;;;;;;;;5034200;28;20225;-71
2021/01/08 05:13:33;;;;;;;4.17;3.87;;;;;;;;;;5034128;28;20282;-70
2021/01/08 05:16:19;;;;;;;5.73;4.30;;;;;;;;;;5033678;28;20210;-71
2021/01/08 05:19:04;;;;;;;4.63;4.23;;;;;;;;;;5033090;28;20696;-71
2021/01/08 05:21:49;;;;;;;5.13;4.63;;;;;;;;;;5033467;28;20225;-71
2021/01/08 05:24:33;;;;;;;5.40;4.90;;;;;;;;;;5032996;28;20230;-71
2021/01/08 05:27:27;;;;;;;7.13;5.30;;;;;;;;;;5031823;28;20214;-70
2021/01/08 05:30:18;;;;;;;5.53;5.07;;;;;;;;;;5033243;28;20217;-70
2021/01/08 05:33:05;;;;;;;5.30;4.83;;;;;;;;;;5033800;28;20315;-71
2021/01/08 05:35:50;;;;;;;6.10;5.50;;;;;;;;;;5032451;28;20245;-71
2021/01/08 05:38:35;;;;;;;6.40;5.80;;;;;;;;;;5033269;28;20201;-71
2021/01/08 05:41:20;;;;;;;5.83;5.33;;;;;;;;;;5030231;28;20264;-70
2021/01/08 05:44:05;;;;;;;6.73;5.53;;;;;;;;;;5033298;28;20265;-71
2021/01/08 05:46:50;;;;;;;6.23;5.63;;;;;;;;;;5032759;28;20201;-71
2021/01/08 05:49:36;;;;;;;6.97;5.17;;;;;;;;;;5033194;28;20566;-71
2021/01/08 05:52:21;;;;;;;5.50;4.83;;;;;;;;;;5033394;28;20650;-71
2021/01/08 05:55:11;;;;;;;4.73;4.33;;;;;;;;;;5033385;28;20310;-71
2021/01/08 05:57:56;;;;;;;4.97;4.57;;;;;;;;;;5032605;28;20230;-71
2021/01/08 06:00:53;;;;;;;5.10;4.70;;;;;;;;;;5032870;28;20218;-71
2021/01/08 06:03:38;;;;;;;4.93;4.53;;;;;;;;;;5033067;28;20233;-71
2021/01/08 06:06:23;;;;;;;5.40;4.90;;;;;;;;;;5031924;28;20296;-70
2021/01/08 06:09:11;;;;;;;5.10;4.60;;;;;;;;;;5032939;28;20708;-70
2021/01/08 06:11:58;;;;;;;5.37;4.43;;;;;;;;;;5032669;28;20245;-71
2021/01/08 06:14:43;;;;;;;4.57;4.27;;;;;;;;;;5033040;28;20205;-71
2021/01/08 06:17:28;;;;;;;4.27;3.97;;;;;;;;;;5032570;28;20218;-71
2021/01/08 06:20:13;;;;;;;4.30;4.00;;;;;;;;;;5032714;28;20198;-70
2021/01/08 06:22:58;;;;;;;4.10;3.80;;;;;;;;;;5032659;28;20273;-70
2021/01/08 06:25:46;;;;;;;4.10;3.80;;;;;;;;;;5033197;28;20676;-71
2021/01/08 06:28:35;;;;;;;4.40;4.07;;;;;;;;;;5033050;28;20244;-71
2021/01/08 06:31:26;;;;;;;4.23;3.93;;;;;;;;;;5032644;28;20222;-70
2021/01/08 06:34:12;;;;;;;4.63;4.23;;;;;;;;;;5032228;28;20201;-70
2021/01/08 06:37:05;;;;;;;4.77;4.30;;;;;;;;;;5032270;28;20285;-70
2021/01/08 06:39:56;;;;;;;4.27;3.97;;;;;;;;;;5032666;28;20772;-70
2021/01/08 06:42:45;;;;;;;4.67;4.27;;;;;;;;;;5032370;28;20656;-70
2021/01/08 06:45:30;;;;;;;4.97;4.60;;;;;;;;;;5032480;28;20202;-70
2021/01/08 06:48:17;;;;;;;5.20;4.80;;;;;;;;;;5032287;28;20268;-70
2021/01/08 06:51:04;;;;;;;4.60;4.30;;;;;;;;;;5032334;28;20314;-70
2021/01/08 06:53:49;;;;;;;4.77;4.37;;;;;;;;;;5032361;28;20210;-70
2021/01/08 06:56:36;;;;;;;5.63;5.13;;;;;;;;;;5032126;28;20253;-70
2021/01/08 06:59:21;;;;;;;5.70;5.20;;;;;;;;;;5040544;28;20245;-70
2021/01/08 07:02:11;;;;;;;7.10;6.40;;;;;;;;;;5040069;28;20272;-70
2021/01/08 07:04:56;;;;;;;6.27;5.67;;;;;;;;;;5027781;28;20222;-70
2021/01/08 07:07:49;;;;;;;6.30;5.70;;;;;;;;;;5012668;28;20285;-70
2021/01/08 07:10:35;;;;;;;6.20;5.70;;;;;;;;;;5011370;28;20242;-70
2021/01/08 07:13:30;;;;;;;8.07;7.27;;;;;;;;;;5021376;28;20214;-70
2021/01/08 07:16:18;;;;;;;16.77;14.57;;;;;;;;;;5031359;28;20228;-70
2021/01/08 07:19:03;;;;;;;14.40;12.83;;;;;;;;;;5031480;28;20194;-70
2021/01/08 07:21:49;;;;;;;9.63;8.63;;;;;;;;;;5031611;28;20303;-70
2021/01/08 07:24:35;;;;;;;9.17;8.30;;;;;;;;;;5031398;28;20322;-70
2021/01/08 07:27:21;;;;;;;8.50;7.80;;;;;;;;;;5031434;28;20202;-71
2021/01/08 07:30:08;;;;;;;7.70;7.00;;;;;;;;;;5031506;28;20197;-70
2021/01/08 07:32:52;;;;;;;7.50;6.90;;;;;;;;;;5031534;28;20744;-69
2021/01/08 07:35:41;;;;;;;8.53;7.70;;;;;;;;;;5031728;28;20789;-70
2021/01/08 07:38:32;;;;;;;11.17;10.17;;;;;;;;;;5030790;28;20536;-70
2021/01/08 07:41:30;;;;;;;8.73;7.97;;;;;;;;;;5029699;28;20670;-69
2021/01/08 07:44:35;;;;;;;7.53;6.83;;;;;;;;;;5022346;28;20246;-70
2021/01/08 07:47:20;;;;;;;7.80;7.00;;;;;;;;;;5010991;28;20265;-70
2021/01/08 07:50:09;;;;;;;7.20;6.60;;;;;;;;;;5011543;28;20230;-70
2021/01/08 07:52:56;;;;;;;6.93;6.10;;;;;;;;;;5011268;28;20202;-70
2021/01/08 07:55:49;;;;;;;6.47;5.97;;;;;;;;;;5011168;28;20234;-70
2021/01/08 07:58:36;;;;;;;6.30;5.77;;;;;;;;;;5011318;28;20198;-70
2021/01/08 08:01:24;;;;;;;7.20;6.60;;;;;;;;;;5011364;28;20226;-71
2021/01/08 08:04:10;;;;;;;6.73;6.13;;;;;;;;;;5011004;28;20273;-70
2021/01/08 08:06:56;;;;;;;7.30;6.70;;;;;;;;;;5011058;28;20253;-70
2021/01/08 08:09:40;;;;;;;7.37;6.67;;;;;;;;;;5011452;28;20273;-70
2021/01/08 08:12:27;;;;;;;7.87;7.17;;;;;;;;;;5011308;28;20214;-70
2021/01/08 08:15:16;;;;;;;7.53;6.83;;;;;;;;;;5011555;28;20253;-70
2021/01/08 08:18:01;;;;;;;7.60;6.90;;;;;;;;;;5010912;28;20218;-70
2021/01/08 08:20:45;;;;;;;7.07;6.47;;;;;;;;;;5014862;28;20250;-70
2021/01/08 08:23:32;;;;;;;7.50;6.80;;;;;;;;;;5015228;28;20246;-70
2021/01/08 08:26:18;;;;;;;8.97;7.40;;;;;;;;;;5014897;28;20237;-71
2021/01/08 08:29:04;;;;;;;7.70;6.93;;;;;;;;;;5015015;28;20205;-70
2021/01/08 08:31:50;;;;;;;8.03;7.17;;;;;;;;;;5016108;28;20269;-74
2021/01/08 08:34:34;;;;;;;9.27;7.47;;;;;;;;;;5034061;28;20217;-70
2021/01/08 08:37:28;;;;;;;6.97;6.37;;;;;;;;;;5015804;28;20979;-72
2021/01/08 08:40:13;;;;;;;8.13;7.43;;;;;;;;;;5031518;28;20222;-70
2021/01/08 08:42:58;;;;;;;8.87;8.07;;;;;;;;;;5032991;28;20229;-69
2021/01/08 08:45:45;;;;;;;11.10;10.00;;;;;;;;;;5019188;28;20700;-69
2021/01/08 08:48:31;;;;;;;12.47;10.77;;;;;;;;;;5034459;28;20221;-71
2021/01/08 08:51:22;;;;;;;12.03;10.43;;;;;;;;;;5014816;28;20309;-71
2021/01/08 08:54:08;;;;;;;10.77;9.73;;;;;;;;;;5017858;28;20244;-70
2021/01/08 08:56:54;;;;;;;8.50;7.80;;;;;;;;;;5033636;28;20248;-68
2021/01/08 08:59:41;;;;;;;8.97;8.07;;;;;;;;;;5033013;28;20209;-69
2021/01/08 09:02:26;;;;;;;8.10;7.37;;;;;;;;;;5034205;28;20206;-68
2021/01/08 09:05:13;;;;;;;8.07;7.27;;;;;;;;;;5031962;28;20269;-69
2021/01/08 09:08:02;;;;;;;8.07;7.27;;;;;;;;;;5031456;28;20658;-69
2021/01/08 09:10:51;;;;;;;7.30;6.60;;;;;;;;;;5033322;28;20225;-68
2021/01/08 09:13:39;;;;;;;7.33;6.73;;;;;;;;;;5033177;28;20224;-72
2021/01/08 09:16:29;;;;;;;7.10;6.50;;;;;;;;;;5031351;28;20233;-68
2021/01/08 09:19:20;;;;;;;8.07;7.20;;;;;;;;;;5032999;28;20218;-69
2021/01/08 09:22:08;;;;;;;7.40;6.67;;;;;;;;;;5031304;28;20302;-70
2021/01/08 09:24:59;;;;;;;8.00;7.33;;;;;;;;;;5022026;28;20230;-70
2021/01/08 09:27:44;;;;;;;8.00;7.30;;;;;;;;;;5031210;28;20285;-70
2021/01/08 09:30:28;;;;;;;7.53;6.83;;;;;;;;;;5031892;28;20237;-70
2021/01/08 09:33:13;;;;;;;7.37;6.67;;;;;;;;;;5033483;28;20745;-70
2021/01/08 09:35:58;;;;;;;6.20;5.70;;;;;;;;;;5032130;28;20232;-70
2021/01/08 09:38:48;;;;;;;6.33;5.83;;;;;;;;;;5013841;28;20234;-70
2021/01/08 09:41:35;;;;;;;5.83;5.37;;;;;;;;;;5017203;28;20294;-69
2021/01/08 09:44:29;;;;;;;6.27;5.70;;;;;;;;;;5032527;28;20254;-70
2021/01/08 09:47:14;;;;;;;7.17;6.57;;;;;;;;;;5032353;28;20217;-68
2021/01/08 09:50:01;;;;;;;7.27;6.67;;;;;;;;;;5031189;28;20230;-69
2021/01/08 09:52:46;;;;;;;7.07;6.47;;;;;;;;;;5031652;28;20613;-68
2021/01/08 09:55:34;;;;;;;5.90;5.40;;;;;;;;;;5030221;28;20285;-68
2021/01/08 09:58:19;;;;;;;5.90;5.40;;;;;;;;;;5013118;28;20202;-70
2021/01/08 10:01:03;;;;;;;5.90;5.40;;;;;;;;;;5013332;28;20218;-70
2021/01/08 10:03:50;;;;;;;5.10;4.67;;;;;;;;;;5024736;28;20233;-71
2021/01/08 10:06:34;;;;;;;4.73;4.43;;;;;;;;;;5020619;28;20627;-70
2021/01/08 10:09:19;;;;;;;4.27;3.97;;;;;;;;;;5031922;28;20568;-71
2021/01/08 10:12:05;;;;;;;5.00;4.53;;;;;;;;;;5032580;28;20206;-70
2021/01/08 10:14:53;;;;;;;4.47;4.17;;;;;;;;;;5032088;28;20256;-70
2021/01/08 10:17:44;;;;;;;4.67;4.27;;;;;;;;;;5029933;28;20201;-70
2021/01/08 10:20:28;;;;;;;4.33;4.03;;;;;;;;;;5017033;28;20601;-69
2021/01/08 10:23:14;;;;;;;4.33;4.00;;;;;;;;;;5032197;28;20269;-69
2021/01/08 10:26:11;;;;;;;4.40;4.10;;;;;;;;;;5030736;28;20206;-70
2021/01/08 10:28:58;;;;;;;4.80;4.30;;;;;;;;;;5032965;28;20687;-70
2021/01/08 10:31:42;;;;;;;4.47;4.13;;;;;;;;;;5031512;28;20234;-70
2021/01/08 10:34:27;;;;;;;4.30;3.90;;;;;;;;;;5031272;28;20201;-71
2021/01/08 10:37:15;;;;;;;3.60;3.40;;;;;;;;;;5032077;28;20205;-69
2021/01/08 10:40:00;;;;;;;3.00;2.80;;;;;;;;;;5030862;28;20258;-69
2021/01/08 10:42:46;;;;;;;2.90;2.70;;;;;;;;;;5028149;28;20294;-68
2021/01/08 10:45:33;;;;;;;2.87;2.70;;;;;;;;;;5042470;28;20308;-69
2021/01/08 10:48:18;;;;;;;2.93;2.63;;;;;;;;;;5045436;28;20760;-69
2021/01/08 10:51:02;;;;;;;2.83;2.70;;;;;;;;;;5031255;28;20234;-71
2021/01/08 10:53:47;;;;;;;2.90;2.70;;;;;;;;;;5030952;28;20282;-71
2021/01/08 10:56:31;;;;;;;3.07;2.87;;;;;;;;;;5031647;28;20578;-71
2021/01/08 10:59:16;;;;;;;2.90;2.70;;;;;;;;;;5031899;28;20229;-71
2021/01/08 11:02:04;;;;;;;4.00;2.93;;;;;;;;;;5031560;28;20201;-71
2021/01/08 11:04:49;;;;;;;2.90;2.73;;;;;;;;;;5031627;28;20236;-70
2021/01/08 11:07:33;;;;;;;3.03;2.83;;;;;;;;;;5031382;28;20209;-70
2021/01/08 11:10:18;;;;;;;3.27;2.97;;;;;;;;;;5031393;28;20280;-69
2021/01/08 11:13:02;;;;;;;3.00;2.80;;;;;;;;;;5026241;28;20214;-69
2021/01/08 11:15:47;;;;;;;3.50;3.30;;;;;;;;;;5031469;28;20206;-71
2021/01/08 11:18:32;;;;;;;3.13;2.93;;;;;;;;;;5030216;28;20666;-73
2021/01/08 11:21:17;;;;;;;4.87;3.27;;;;;;;;;;5026161;28;20237;-72
2021/01/08 11:24:02;;;;;;;4.23;3.40;;;;;;;;;;5031524;28;20276;-72
2021/01/08 11:26:47;;;;;;;3.63;3.42;;;;;;;;;;5029710;28;20409;-71
2021/01/08 11:29:34;;;;;;;3.20;3.00;;;;;;;;;;5031583;28;20217;-72
2021/01/08 11:32:18;;;;;;;3.90;3.60;;;;;;;;;;5029308;28;20649;-74
2021/01/08 11:35:04;;;;;;;5.13;4.67;;;;;;;;;;5031585;28;20242;-71
2021/01/08 11:37:49;;;;;;;5.50;4.97;;;;;;;;;;5030579;28;20575;-73
2021/01/08 11:40:33;;;;;;;3.33;3.07;;;;;;;;;;5031355;28;20329;-71
2021/01/08 11:43:17;;;;;;;4.57;4.27;;;;;;;;;;5031240;28;20226;-70
2021/01/08 11:46:02;;;;;;;3.70;3.40;;;;;;;;;;5029170;28;20224;-71
2021/01/08 11:48:47;;;;;;;4.47;4.00;;;;;;;;;;5023190;28;20283;-70
2021/01/08 11:51:35;;;;;;;4.00;3.70;;;;;;;;;;5011423;28;20222;-70
2021/01/08 11:54:19;;;;;;;5.70;5.20;;;;;;;;;;5010934;28;20211;-71
2021/01/08 11:57:05;;;;;;;3.20;3.00;;;;;;;;;;5010731;28;20253;-71
2021/01/08 11:59:50;;;;;;;3.07;2.87;;;;;;;;;;5018693;28;20324;-71
2021/01/08 12:02:35;;;;;;;3.37;3.17;;;;;;;;;;5029101;28;20202;-71
2021/01/08 12:05:20;;;;;;;3.27;3.03;;;;;;;;;;5030728;28;20765;-71
2021/01/08 12:08:05;;;;;;;2.70;2.60;;;;;;;;;;5028540;28;20242;-71
2021/01/08 12:10:52;;;;;;;3.20;3.00;;;;;;;;;;5028509;28;20236;-71
2021/01/08 12:13:37;;;;;;;3.00;2.80;;;;;;;;;;5025496;28;20217;-71
2021/01/08 12:16:31;;;;;;;3.13;2.93;;;;;;;;;;5026844;28;20222;-71
2021/01/08 12:19:17;;;;;;;3.33;3.13;;;;;;;;;;5030134;28;20272;-72
2021/01/08 12:22:06;;;;;;;4.00;3.70;;;;;;;;;;5030959;28;20213;-73
2021/01/08 12:24:51;;;;;;;3.30;3.10;;;;;;;;;;5030611;28;20771;-71
2021/01/08 12:27:37;;;;;;;3.30;3.10;;;;;;;;;;5030478;28;20202;-71
2021/01/08 12:30:21;;;;;;;3.20;3.00;;;;;;;;;;5030603;28;20230;-71
2021/01/08 12:33:09;;;;;;;3.60;3.30;;;;;;;;;;5030012;28;20567;-71
2021/01/08 12:35:53;;;;;;;4.47;4.07;;;;;;;;;;5029797;28;20206;-71
2021/01/08 12:38:38;;;;;;;5.07;4.63;;;;;;;;;;5023971;28;20286;-71
2021/01/08 12:41:23;;;;;;;3.83;3.50;;;;;;;;;;5027333;28;20226;-71
2021/01/08 12:44:08;;;;;;;5.37;4.97;;;;;;;;;;5028248;28;20237;-71
2021/01/08 12:46:56;;;;;;;8.17;7.37;;;;;;;;;;5029945;28;20602;-71
2021/01/08 12:49:40;;;;;;;5.17;4.77;;;;;;;;;;5028415;28;20229;-71
2021/01/08 12:52:27;;;;;;;3.80;3.60;;;;;;;;;;5029614;28;20253;-71
2021/01/08 12:55:12;;;;;;;3.73;3.47;;;;;;;;;;5029310;28;20202;-71
2021/01/08 12:58:00;;;;;;;3.23;3.03;;;;;;;;;;5028287;28;20320;-71
2021/01/08 13:00:48;;;;;;;4.70;4.30;;;;;;;;;;5029612;28;20230;-70
2021/01/08 13:03:33;;;;;;;3.57;3.27;;;;;;;;;;5029447;28;20249;-70
2021/01/08 13:06:21;;;;;;;3.03;2.83;;;;;;;;;;5019989;28;20692;-70
2021/01/08 13:09:06;;;;;;;3.50;3.20;;;;;;;;;;5034153;28;20230;-71
2021/01/08 13:11:50;;;;;;;2.87;2.70;;;;;;;;;;5034003;28;20210;-71
2021/01/08 13:14:35;;;;;;;2.73;2.60;;;;;;;;;;5034247;28;20282;-71
2021/01/08 13:17:20;;;;;;;2.90;2.70;;;;;;;;;;5033762;28;20194;-69
2021/01/08 13:20:06;;;;;;;2.80;2.70;;;;;;;;;;5042059;28;20237;-69
2021/01/08 13:22:52;;;;;;;2.93;2.80;;;;;;;;;;5040676;28;20285;-68
2021/01/08 13:25:39;;;;;;;5.70;5.20;;;;;;;;;;5035046;28;20611;-69
2021/01/08 13:28:23;;;;;;;5.87;5.27;;;;;;;;;;5039496;28;20278;-69
2021/01/08 13:31:08;;;;;;;10.03;8.07;;;;;;;;;;5053291;28;20221;-68
2021/01/08 13:33:55;;;;;;;8.77;7.57;;;;;;;;;;5045540;28;20329;-69
2021/01/08 13:36:39;;;;;;;7.77;7.07;;;;;;;;;;5043126;28;20683;-69
2021/01/08 13:39:26;;;;;;;7.73;6.77;;;;;;;;;;5053542;28;20699;-70
2021/01/08 13:42:11;;;;;;;8.93;8.03;;;;;;;;;;5045215;28;20752;-70
2021/01/08 13:44:56;;;;;;;3.67;3.37;;;;;;;;;;5033261;28;20253;-69
2021/01/08 13:47:41;;;;;;;2.60;2.50;;;;;;;;;;5032820;28;20221;-70
2021/01/08 13:50:25;;;;;;;3.03;2.73;;;;;;;;;;5033017;28;20349;-69
2021/01/08 13:53:10;;;;;;;4.37;4.07;;;;;;;;;;5033131;28;20560;-69
2021/01/08 13:56:01;;;;;;;3.80;3.50;;;;;;;;;;5033073;28;20339;-69
2021/01/08 13:58:47;;;;;;;4.33;4.03;;;;;;;;;;5030550;28;20201;-69
2021/01/08 14:01:36;;;;;;;5.00;4.60;;;;;;;;;;5053166;28;20252;-70
2021/01/08 14:04:22;;;;;;;5.20;4.80;;;;;;;;;;5052911;28;20325;-69
2021/01/08 14:07:07;;;;;;;4.30;3.90;;;;;;;;;;5052581;28;20703;-70
2021/01/08 14:09:52;;;;;;;4.30;4.00;;;;;;;;;;5052390;28;20305;-71
2021/01/08 14:12:36;;;;;;;3.23;3.03;;;;;;;;;;5033269;28;20666;-70
2021/01/08 14:15:21;;;;;;;3.70;3.40;;;;;;;;;;5032998;28;20574;-70
2021/01/08 14:18:05;;;;;;;4.03;3.53;;;;;;;;;;5031909;28;20198;-70
2021/01/08 14:20:53;;;;;;;4.27;3.50;;;;;;;;;;5032589;28;20280;-70
2021/01/08 14:23:38;;;;;;;3.57;3.27;;;;;;;;;;5026565;28;20717;-70
2021/01/08 14:26:23;;;;;;;4.13;3.50;;;;;;;;;;5019889;28;20608;-68
2021/01/08 14:29:08;;;;;;;2.57;2.47;;;;;;;;;;5030183;28;20219;-69
2021/01/08 14:31:52;;;;;;;4.07;3.77;;;;;;;;;;5022176;28;20545;-70
2021/01/08 14:34:37;;;;;;;3.87;3.57;;;;;;;;;;5029561;28;20433;-69
2021/01/08 14:37:24;;;;;;;3.10;2.90;;;;;;;;;;5030636;28;20205;-69
2021/01/08 14:40:10;;;;;;;5.87;4.90;;;;;;;;;;5026535;28;20230;-69
2021/01/08 14:42:57;;;;;;;3.30;3.10;;;;;;;;;;5031176;28;20677;-68
2021/01/08 14:45:41;;;;;;;3.60;3.30;;;;;;;;;;5030861;28;20218;-68
2021/01/08 14:48:26;;;;;;;4.10;3.70;;;;;;;;;;5021585;28;20205;-68
2021/01/08 14:51:11;;;;;;;5.40;5.00;;;;;;;;;;5026732;28;20281;-69
2021/01/08 14:53:56;;;;;;;6.20;5.70;;;;;;;;;;5016221;28;20258;-69
2021/01/08 14:56:44;;;;;;;6.90;6.30;;;;;;;;;;5030697;28;20621;-69
2021/01/08 14:59:29;;;;;;;6.83;6.33;;;;;;;;;;5025997;28;20583;-69
2021/01/08 15:02:13;;;;;;;6.70;6.20;;;;;;;;;;5030766;28;20249;-69
2021/01/08 15:04:58;;;;;;;7.13;6.47;;;;;;;;;;5028385;28;20233;-70
2021/01/08 15:07:42;;;;;;;9.43;8.20;;;;;;;;;;5011776;28;20581;-69
2021/01/08 15:10:27;;;;;;;11.00;8.63;;;;;;;;;;5012242;28;20278;-68
2021/01/08 15:13:12;;;;;;;18.13;13.70;;;;;;;;;;5012170;28;20198;-69
2021/01/08 15:15:56;;;;;;;12.47;9.87;;;;;;;;;;5011719;28;20295;-69
2021/01/08 15:18:41;;;;;;;8.30;7.40;;;;;;;;;;5012273;28;20214;-69
2021/01/08 15:21:25;;;;;;;6.17;5.57;;;;;;;;;;5012067;28;20394;-69
2021/01/08 15:24:10;;;;;;;6.03;5.50;;;;;;;;;;5011744;28;20709;-69
2021/01/08 15:26:55;;;;;;;5.10;4.80;;;;;;;;;;5011370;28;20210;-69
2021/01/08 15:29:40;;;;;;;7.17;6.47;;;;;;;;;;5011375;28;20225;-69
2021/01/08 15:32:24;;;;;;;8.87;7.50;;;;;;;;;;5011952;28;20198;-68
2021/01/08 15:35:09;;;;;;;9.33;8.40;;;;;;;;;;5011838;28;20198;-69
2021/01/08 15:37:54;;;;;;;13.20;11.87;;;;;;;;;;5011070;28;20222;-69
2021/01/08 15:40:38;;;;;;;13.13;10.47;;;;;;;;;;5011755;28;20750;-69
2021/01/08 15:43:24;;;;;;;10.43;9.53;;;;;;;;;;5011757;28;20202;-69
2021/01/08 15:46:08;;;;;;;8.70;7.93;;;;;;;;;;5011182;28;20253;-69
2021/01/08 15:48:52;;;;;;;5.53;5.13;;;;;;;;;;5011379;28;20482;-69
2021/01/08 15:51:37;;;;;;;6.27;5.77;;;;;;;;;;5011739;28;20203;-69
2021/01/08 15:54:21;;;;;;;7.93;6.87;;;;;;;;;;5011860;28;20636;-69
2021/01/08 15:57:06;;;;;;;7.30;6.70;;;;;;;;;;5011210;28;20290;-69
2021/01/08 15:59:51;;;;;;;7.60;7.00;;;;;;;;;;5011135;28;20273;-69
2021/01/08 16:02:36;;;;;;;7.30;6.70;;;;;;;;;;5011453;28;20214;-69
2021/01/08 16:05:20;;;;;;;13.80;12.57;;;;;;;;;;5011115;28;20234;-69
2021/01/08 16:08:05;;;;;;;9.03;8.23;;;;;;;;;;5010802;28;20234;-69
2021/01/08 16:10:52;;;;;;;7.97;7.37;;;;;;;;;;5011193;28;20226;-69
2021/01/08 16:13:37;;;;;;;7.50;6.90;;;;;;;;;;5011321;28;20230;-68
2021/01/08 16:16:24;;;;;;;7.00;6.40;;;;;;;;;;5010689;28;20757;-70
2021/01/08 16:19:09;;;;;;;9.55;8.85;;;;;;;;;;5009790;28;20463;-69
2021/01/08 16:21:56;;;;;;;7.73;7.13;;;;;;;;;;5011187;28;20714;-68
2021/01/08 16:24:41;;;;;;;7.43;6.83;;;;;;;;;;5011049;28;20610;-69
2021/01/08 16:27:29;;;;;;;9.23;8.43;;;;;;;;;;5010917;28;20563;-69
2021/01/08 16:30:15;;;;;;;8.47;7.67;;;;;;;;;;5011102;28;20273;-69
2021/01/08 16:33:02;;;;;;;20.83;19.13;;;;;;;;;;5010901;28;20206;-69
2021/01/08 16:35:48;;;;;;;17.77;16.23;;;;;;;;;;5011149;28;20298;-69